createdAt,value
2019-04-22T00:00:30.796Z,90.10
2019-04-22T00:03:02.810Z,90.20
2019-04-22T00:05:52.838Z,90.60
2019-04-22T00:08:24.180Z,90.20
2019-04-22T00:10:54.306Z,90.60
2019-04-22T00:13:34.876Z,90.40
2019-04-22T00:15:55.968Z,90.80
2019-04-22T00:18:46.795Z,90.90
2019-04-22T00:21:07.216Z,91.20
2019-04-22T00:23:30.716Z,91.30
2019-04-22T00:26:10.960Z,91.50
2019-04-22T00:28:39.281Z,91.80
2019-04-22T00:31:13.105Z,92.20
2019-04-22T00:33:39.237Z,91.90
2019-04-22T00:36:08.840Z,91.90
2019-04-22T00:38:44.355Z,92.00
2019-04-22T00:41:17.022Z,92.30
2019-04-22T00:43:39.622Z,92.30
2019-04-22T00:46:23.910Z,92.50
2019-04-22T00:49:05.818Z,92.30
2019-04-22T00:51:41.471Z,92.50
2019-04-22T00:53:50.761Z,93.00
2019-04-22T00:58:45.114Z,93.10
2019-04-22T01:01:19.047Z,93.50
2019-04-22T01:04:01.749Z,93.70
2019-04-22T01:06:25.832Z,93.50
2019-04-22T01:09:00.311Z,93.60
2019-04-22T01:13:55.917Z,93.90
2019-04-22T01:16:28.307Z,94.00
2019-04-22T01:19:05.267Z,94.10
2019-04-22T01:21:36.362Z,94.20
2019-04-22T01:23:59.810Z,94.30
2019-04-22T01:26:31.332Z,94.30
2019-04-22T01:28:58.891Z,94.30
2019-04-22T01:31:21.926Z,94.60
2019-04-22T01:34:08.390Z,94.90
2019-04-22T01:36:43.115Z,94.60
2019-04-22T01:39:18.067Z,94.80
2019-04-22T01:41:54.652Z,94.70
2019-04-22T01:46:54.801Z,95.00
2019-04-22T01:49:21.370Z,95.30
2019-04-22T01:51:58.659Z,94.90
2019-04-22T01:54:29.509Z,95.30
2019-04-22T01:59:23.983Z,95.60
2019-04-22T02:02:00.676Z,95.50
2019-04-22T02:04:48.054Z,95.30
2019-04-22T02:07:01.820Z,95.70
2019-04-22T02:09:49.714Z,95.70
2019-04-22T02:12:05.989Z,95.90
2019-04-22T02:14:39.935Z,95.90
2019-04-22T02:17:10.056Z,95.90
2019-04-22T02:22:13.666Z,95.90
2019-04-22T02:24:46.699Z,95.90
2019-04-22T02:27:17.485Z,96.40
2019-04-22T02:32:28.210Z,96.30
2019-04-22T02:35:01.225Z,96.80
2019-04-22T02:37:18.554Z,96.90
2019-04-22T02:39:58.044Z,97.00
2019-04-22T02:42:16.590Z,97.00
2019-04-22T02:47:36.498Z,97.40
2019-04-22T02:52:31.174Z,97.30
2019-04-22T03:00:07.385Z,97.60
2019-04-22T03:07:31.903Z,98.10
2019-04-22T03:15:08.805Z,98.10
2019-04-22T03:17:38.919Z,97.90
2019-04-22T03:22:46.856Z,98.00
2019-04-22T03:25:43.796Z,98.10
2019-04-22T03:27:42.683Z,98.30
2019-04-22T03:30:44.730Z,98.90
2019-04-22T03:33:05.414Z,98.80
2019-04-22T03:37:53.366Z,98.80
2019-04-22T03:50:25.859Z,99.20
2019-04-22T03:53:04.107Z,99.30
2019-04-22T03:55:32.628Z,99.40
2019-04-22T04:00:35.703Z,99.60
2019-04-22T04:03:04.949Z,99.60
2019-04-22T04:05:39.063Z,99.50
2019-04-22T04:08:12.660Z,99.70
2019-04-22T04:13:17.721Z,99.80
2019-04-22T04:20:54.549Z,99.80
2019-04-22T04:23:18.246Z,99.90
2019-04-22T04:28:31.928Z,99.90
2019-04-22T04:30:48.699Z,99.90
2019-04-22T04:38:21.132Z,99.90
2019-04-22T04:40:49.074Z,99.90
2019-04-22T04:43:26.075Z,99.90
2019-04-22T04:45:55.469Z,99.90
2019-04-22T04:48:39.136Z,99.90
2019-04-22T04:51:07.659Z,99.90
2019-04-22T04:56:02.803Z,99.90
2019-04-22T04:58:55.861Z,99.90
2019-04-22T05:01:06.563Z,99.90
2019-04-22T05:03:43.519Z,99.90
2019-04-22T05:06:09.640Z,99.90
2019-04-22T05:08:52.344Z,99.90
2019-04-22T05:11:10.942Z,99.90
2019-04-22T05:13:49.432Z,99.90
2019-04-22T05:16:27.092Z,99.90
2019-04-22T05:18:37.967Z,99.90
2019-04-22T05:23:45.051Z,99.90
2019-04-22T05:26:16.538Z,99.90
2019-04-22T05:28:37.656Z,99.90
2019-04-22T05:31:16.559Z,99.90
2019-04-22T05:33:43.696Z,99.90
2019-04-22T05:36:13.898Z,99.90
2019-04-22T05:38:49.865Z,99.90
2019-04-22T05:41:17.901Z,99.90
2019-04-22T05:43:53.271Z,99.90
2019-04-22T05:46:19.856Z,99.90
2019-04-22T05:48:43.928Z,99.90
2019-04-22T05:51:18.062Z,99.80
2019-04-22T05:53:48.383Z,99.60
2019-04-22T05:56:27.811Z,99.40
2019-04-22T05:59:04.582Z,99.30
2019-04-22T06:01:45.680Z,99.10
2019-04-22T06:03:59.229Z,98.90
2019-04-22T06:06:22.722Z,98.90
2019-04-22T06:08:57.646Z,98.70
2019-04-22T06:13:56.003Z,98.50
2019-04-22T06:16:42.316Z,98.30
2019-04-22T06:19:07.561Z,98.10
2019-04-22T06:21:38.316Z,98.00
2019-04-22T06:26:53.219Z,97.70
2019-04-22T06:32:06.997Z,97.30
2019-04-22T06:34:17.233Z,97.20
2019-04-22T06:36:45.898Z,97.20
2019-04-22T06:39:26.231Z,96.80
2019-04-22T06:41:47.665Z,96.70
2019-04-22T06:44:18.717Z,96.60
2019-04-22T06:49:26.842Z,95.80
2019-04-22T06:51:55.529Z,95.30
2019-04-22T06:54:22.073Z,95.20
2019-04-22T06:56:58.020Z,95.00
2019-04-22T06:59:25.806Z,94.80
2019-04-22T07:04:31.768Z,94.50
2019-04-22T07:07:04.614Z,94.10
2019-04-22T07:09:38.292Z,93.90
2019-04-22T07:12:09.807Z,93.40
2019-04-22T07:14:35.627Z,93.00
2019-04-22T07:17:01.844Z,92.20
2019-04-22T07:19:37.176Z,92.00
2019-04-22T07:22:11.159Z,91.70
2019-04-22T07:24:46.164Z,91.20
2019-04-22T07:27:12.882Z,91.30
2019-04-22T07:32:18.622Z,90.60
2019-04-22T07:34:46.230Z,89.40
2019-04-22T07:39:59.388Z,86.70
2019-04-22T07:42:21.530Z,85.70
2019-04-22T07:44:51.039Z,84.30
2019-04-22T07:49:55.726Z,83.20
2019-04-22T07:52:24.493Z,83.10
2019-04-22T07:54:53.049Z,82.20
2019-04-22T07:57:31.566Z,82.70
2019-04-22T07:59:57.190Z,81.40
2019-04-22T08:02:26.083Z,80.70
2019-04-22T08:07:30.184Z,79.40
2019-04-22T08:10:08.783Z,78.80
2019-04-22T08:12:36.589Z,77.50
2019-04-22T08:14:59.436Z,76.60
2019-04-22T08:20:02.738Z,75.00
2019-04-22T08:22:40.194Z,75.30
2019-04-22T08:25:05.496Z,75.40
2019-04-22T08:27:35.665Z,74.90
2019-04-22T08:30:14.427Z,74.30
2019-04-22T08:32:44.155Z,73.40
2019-04-22T08:35:18.714Z,73.90
2019-04-22T08:40:21.426Z,72.30
2019-04-22T08:42:53.351Z,71.50
2019-04-22T08:45:14.335Z,70.80
2019-04-22T08:47:51.303Z,69.70
2019-04-22T08:52:49.028Z,68.50
2019-04-22T08:55:29.609Z,68.70
2019-04-22T08:58:08.443Z,68.00
2019-04-22T09:00:20.014Z,66.90
2019-04-22T09:02:53.931Z,66.90
2019-04-22T09:05:37.115Z,64.80
2019-04-22T09:07:52.066Z,65.00
2019-04-22T09:10:36.228Z,64.80
2019-04-22T09:13:00.643Z,63.00
2019-04-22T09:15:30.872Z,61.80
2019-04-22T09:18:02.304Z,60.60
2019-04-22T09:20:32.676Z,60.70
2019-04-22T09:23:09.758Z,60.30
2019-04-22T09:25:34.319Z,60.30
2019-04-22T09:28:10.570Z,59.80
2019-04-22T09:30:43.302Z,59.10
2019-04-22T09:33:15.964Z,57.70
2019-04-22T09:35:45.126Z,57.30
2019-04-22T09:38:25.483Z,57.80
2019-04-22T09:43:17.049Z,56.50
2019-04-22T09:45:48.323Z,54.90
2019-04-22T09:48:23.403Z,54.30
2019-04-22T09:50:48.101Z,54.30
2019-04-22T09:53:22.495Z,54.60
2019-04-22T09:55:55.135Z,54.90
2019-04-22T09:58:26.581Z,54.50
2019-04-22T10:01:18.714Z,53.20
2019-04-22T10:03:49.780Z,53.20
2019-04-22T10:06:22.566Z,52.20
2019-04-22T10:08:52.938Z,53.00
2019-04-22T10:11:24.008Z,51.70
2019-04-22T10:13:50.762Z,50.90
2019-04-22T10:16:18.536Z,50.20
2019-04-22T10:18:57.456Z,49.50
2019-04-22T10:21:26.841Z,51.00
2019-04-22T10:23:53.435Z,49.30
2019-04-22T10:26:30.114Z,50.00
2019-04-22T10:31:34.871Z,47.00
2019-04-22T10:33:46.401Z,47.30
2019-04-22T10:36:01.599Z,47.90
2019-04-22T10:38:32.390Z,46.60
2019-04-22T10:41:02.731Z,46.40
2019-04-22T10:43:32.929Z,45.10
2019-04-22T10:46:03.974Z,44.30
2019-04-22T10:48:34.502Z,45.40
2019-04-22T10:51:04.554Z,43.80
2019-04-22T10:53:35.460Z,42.40
2019-04-22T10:56:05.349Z,43.40
2019-04-22T10:58:34.995Z,40.80
2019-04-22T11:01:05.326Z,41.70
2019-04-22T11:03:35.292Z,40.70
2019-04-22T11:06:05.555Z,39.50
2019-04-22T11:08:44.527Z,39.80
2019-04-22T11:11:19.135Z,39.40
2019-04-22T11:13:37.896Z,38.90
2019-04-22T11:16:07.654Z,39.00
2019-04-22T11:18:37.821Z,39.30
2019-04-22T11:21:07.582Z,39.10
2019-04-22T11:23:38.567Z,39.50
2019-04-22T11:26:08.229Z,39.10
2019-04-22T11:28:38.043Z,36.40
2019-04-22T11:31:08.202Z,38.10
2019-04-22T11:33:38.566Z,38.40
2019-04-22T11:36:08.100Z,37.80
2019-04-22T11:38:44.995Z,37.80
2019-04-22T11:41:09.281Z,36.70
2019-04-22T11:43:39.000Z,36.90
2019-04-22T11:46:09.383Z,37.10
2019-04-22T11:48:40.012Z,35.90
2019-04-22T11:51:09.870Z,35.80
2019-04-22T11:53:40.748Z,34.80
2019-04-22T11:56:11.164Z,35.40
2019-04-22T11:58:40.568Z,34.40
2019-04-22T12:01:10.832Z,34.80
2019-04-22T12:03:40.218Z,35.20
2019-04-22T12:06:10.348Z,35.10
2019-04-22T12:08:41.447Z,34.80
2019-04-22T12:11:11.610Z,34.00
2019-04-22T12:13:42.219Z,34.40
2019-04-22T12:16:11.711Z,34.50
2019-04-22T12:18:41.043Z,35.00
2019-04-22T12:21:10.955Z,34.10
2019-04-22T12:23:41.292Z,34.10
2019-04-22T12:26:14.080Z,34.10
2019-04-22T12:28:41.756Z,34.20
2019-04-22T12:31:11.349Z,33.60
2019-04-22T12:33:41.318Z,33.60
2019-04-22T12:36:11.014Z,33.00
2019-04-22T12:38:41.714Z,33.90
2019-04-22T12:41:12.239Z,31.60
2019-04-22T12:43:43.101Z,31.80
2019-04-22T12:46:12.623Z,32.20
2019-04-22T12:48:43.250Z,31.80
2019-04-22T12:51:13.355Z,31.40
2019-04-22T12:53:44.542Z,30.90
2019-04-22T12:56:15.425Z,30.40
2019-04-22T12:58:45.786Z,30.00
2019-04-22T13:01:15.289Z,29.90
2019-04-22T13:03:44.771Z,29.70
2019-04-22T13:06:14.444Z,29.90
2019-04-22T13:08:45.577Z,29.50
2019-04-22T13:11:19.898Z,30.20
2019-04-22T13:13:47.148Z,31.60
2019-04-22T13:16:17.472Z,30.70
2019-04-22T13:18:53.811Z,30.60
2019-04-22T13:21:18.597Z,31.40
2019-04-22T13:23:50.732Z,31.10
2019-04-22T13:26:21.108Z,31.50
2019-04-22T13:28:51.442Z,31.40
2019-04-22T13:31:22.586Z,32.90
2019-04-22T13:33:56.032Z,31.50
2019-04-22T13:36:25.899Z,31.60
2019-04-22T13:38:55.311Z,32.10
2019-04-22T13:41:35.795Z,32.00
2019-04-22T13:43:56.121Z,32.00
2019-04-22T13:46:28.637Z,32.80
2019-04-22T13:49:23.926Z,33.10
2019-04-22T13:56:50.560Z,32.00
2019-04-22T13:59:11.521Z,32.80
2019-04-22T14:01:36.686Z,31.60
2019-04-22T14:04:10.446Z,31.50
2019-04-22T14:06:40.784Z,31.90
2019-04-22T14:09:11.553Z,32.00
2019-04-22T14:11:49.940Z,31.30
2019-04-22T14:14:12.746Z,31.00
2019-04-22T14:16:42.791Z,30.60
2019-04-22T14:19:12.147Z,30.60
2019-04-22T14:21:44.246Z,31.30
2019-04-22T14:24:14.030Z,31.70
2019-04-22T14:26:55.655Z,31.60
2019-04-22T14:29:15.697Z,31.30
2019-04-22T14:31:46.299Z,31.90
2019-04-22T14:34:16.906Z,30.50
2019-04-22T14:36:47.563Z,30.70
2019-04-22T14:39:17.798Z,31.70
2019-04-22T14:42:08.458Z,31.50
2019-04-22T14:47:15.682Z,31.70
2019-04-22T14:49:46.231Z,32.00
2019-04-22T14:52:15.103Z,33.10
2019-04-22T14:54:40.108Z,32.00
2019-04-22T14:56:54.323Z,31.90
2019-04-22T14:59:24.921Z,32.70
2019-04-22T15:01:55.812Z,33.00
2019-04-22T15:04:25.243Z,32.90
2019-04-22T15:06:54.858Z,32.80
2019-04-22T15:09:24.206Z,32.70
2019-04-22T15:12:08.392Z,32.70
2019-04-22T15:14:25.599Z,32.10
2019-04-22T15:17:13.039Z,32.30
2019-04-22T15:19:45.449Z,32.00
2019-04-22T15:22:14.875Z,32.40
2019-04-22T15:24:45.067Z,32.10
2019-04-22T15:27:14.539Z,32.90
2019-04-22T15:29:45.148Z,32.40
2019-04-22T15:32:15.684Z,32.50
2019-04-22T15:34:45.116Z,32.60
2019-04-22T15:37:15.966Z,32.20
2019-04-22T15:39:45.750Z,31.70
2019-04-22T15:42:22.699Z,31.20
2019-04-22T15:44:46.320Z,31.20
2019-04-22T15:47:15.677Z,31.00
2019-04-22T15:49:45.901Z,30.30
2019-04-22T15:52:16.691Z,31.00
2019-04-22T15:54:49.940Z,30.60
2019-04-22T15:57:17.284Z,30.60
2019-04-22T16:00:04.966Z,30.50
2019-04-22T16:02:19.334Z,31.10
2019-04-22T16:04:48.760Z,30.80
2019-04-22T16:07:20.598Z,30.80
2019-04-22T16:09:49.841Z,30.90
2019-04-22T16:12:27.574Z,31.20
2019-04-22T16:14:53.410Z,31.50
2019-04-22T16:17:22.465Z,31.00
2019-04-22T16:19:53.210Z,31.30
2019-04-22T16:22:24.909Z,31.50
2019-04-22T16:24:56.268Z,31.70
2019-04-22T16:27:27.351Z,31.50
2019-04-22T16:29:57.147Z,31.30
2019-04-22T16:32:27.740Z,31.70
2019-04-22T16:34:58.692Z,32.00
2019-04-22T16:37:28.587Z,31.70
2019-04-22T16:39:58.897Z,31.80
2019-04-22T16:42:37.712Z,32.00
2019-04-22T16:44:59.685Z,32.20
2019-04-22T16:47:28.977Z,31.50
2019-04-22T16:49:59.576Z,31.10
2019-04-22T16:52:30.256Z,30.90
2019-04-22T16:55:00.999Z,31.70
2019-04-22T16:57:30.509Z,31.20
2019-04-22T17:00:00.486Z,31.60
2019-04-22T17:02:34.860Z,31.60
2019-04-22T17:05:19.852Z,32.10
2019-04-22T17:07:49.995Z,31.80
2019-04-22T17:10:19.707Z,32.20
2019-04-22T17:12:59.522Z,31.70
2019-04-22T17:15:21.761Z,31.90
2019-04-22T17:17:51.682Z,32.10
2019-04-22T17:20:22.928Z,32.50
2019-04-22T17:22:53.516Z,32.70
2019-04-22T17:25:24.512Z,33.30
2019-04-22T17:27:55.158Z,33.30
2019-04-22T17:30:26.437Z,33.60
2019-04-22T17:32:56.688Z,33.80
2019-04-22T17:35:26.321Z,33.80
2019-04-22T17:38:04.803Z,33.90
2019-04-22T17:40:43.850Z,34.00
2019-04-22T17:43:29.998Z,34.10
2019-04-22T17:45:51.549Z,34.20
2019-04-22T17:48:40.716Z,34.40
2019-04-22T17:51:22.636Z,34.60
2019-04-22T17:53:56.653Z,35.20
2019-04-22T17:56:20.591Z,34.90
2019-04-22T17:58:51.515Z,35.60
2019-04-22T18:01:25.238Z,36.20
2019-04-22T18:03:39.162Z,36.30
2019-04-22T18:06:13.775Z,36.60
2019-04-22T18:08:56.427Z,36.80
2019-04-22T18:11:34.059Z,37.00
2019-04-22T18:14:01.247Z,37.50
2019-04-22T18:16:32.309Z,37.80
2019-04-22T18:19:02.798Z,38.20
2019-04-22T18:21:28.855Z,38.40
2019-04-22T18:23:54.119Z,38.60
2019-04-22T18:26:32.085Z,38.80
2019-04-22T18:29:07.506Z,38.70
2019-04-22T18:31:26.727Z,39.10
2019-04-22T18:34:00.635Z,39.60
2019-04-22T18:36:34.539Z,39.80
2019-04-22T18:39:11.558Z,39.80
2019-04-22T18:41:40.930Z,40.20
2019-04-22T18:44:09.675Z,40.10
2019-04-22T18:46:44.526Z,39.90
2019-04-22T18:49:11.216Z,39.90
2019-04-22T18:51:51.776Z,39.90
2019-04-22T18:54:42.289Z,39.70
2019-04-22T18:57:12.270Z,40.40
2019-04-22T18:59:28.829Z,40.30
2019-04-22T19:02:04.241Z,39.40
2019-04-22T19:04:31.729Z,39.80
2019-04-22T19:07:23.762Z,39.30
2019-04-22T19:09:56.244Z,39.20
2019-04-22T19:12:27.321Z,38.80
2019-04-22T19:15:10.315Z,39.10
2019-04-22T19:17:33.929Z,39.50
2019-04-22T19:20:02.765Z,39.50
2019-04-22T19:22:29.778Z,39.20
2019-04-22T19:24:54.705Z,40.10
2019-04-22T19:27:26.816Z,39.50
2019-04-22T19:29:57.839Z,40.00
2019-04-22T19:32:31.063Z,39.50
2019-04-22T19:35:01.664Z,39.50
2019-04-22T19:37:28.380Z,40.20
2019-04-22T19:40:09.429Z,39.90
2019-04-22T19:42:38.639Z,40.70
2019-04-22T19:45:05.868Z,40.70
2019-04-22T19:50:11.637Z,40.90
2019-04-22T19:52:43.494Z,41.60
2019-04-22T19:55:12.752Z,42.80
2019-04-22T19:57:42.353Z,43.90
2019-04-22T20:00:22.885Z,45.20
2019-04-22T20:03:16.734Z,46.30
2019-04-22T20:05:54.708Z,47.60
2019-04-22T20:08:39.388Z,48.60
2019-04-22T20:10:50.022Z,49.30
2019-04-22T20:13:30.177Z,50.80
2019-04-22T20:15:53.452Z,51.30
2019-04-22T20:18:34.289Z,52.10
2019-04-22T20:21:04.233Z,52.80
2019-04-22T20:23:25.652Z,53.50
2019-04-22T20:25:56.260Z,53.80
2019-04-22T20:28:39.199Z,54.90
2019-04-22T20:31:03.222Z,54.50
2019-04-22T20:33:43.195Z,55.50
2019-04-22T20:36:14.311Z,56.20
2019-04-22T20:38:38.851Z,55.80
2019-04-22T20:41:05.674Z,56.30
2019-04-22T20:43:46.761Z,56.60
2019-04-22T20:46:11.396Z,56.70
2019-04-22T20:48:46.926Z,57.20
2019-04-22T20:51:13.946Z,57.20
2019-04-22T20:53:52.181Z,57.50
2019-04-22T20:56:15.995Z,57.60
2019-04-22T20:58:45.232Z,57.70
2019-04-22T21:01:10.396Z,57.40
2019-04-22T21:03:40.894Z,57.40
2019-04-22T21:06:14.866Z,57.60
2019-04-22T21:08:56.566Z,58.10
2019-04-22T21:11:19.629Z,57.20
2019-04-22T21:13:53.187Z,57.30
2019-04-22T21:16:26.805Z,56.90
2019-04-22T21:18:46.232Z,57.10
2019-04-22T21:21:31.793Z,57.00
2019-04-22T21:23:51.387Z,56.70
2019-04-22T21:26:29.517Z,57.20
2019-04-22T21:28:58.145Z,56.60
2019-04-22T21:31:33.824Z,56.30
2019-04-22T21:33:59.455Z,56.60
2019-04-22T21:36:35.396Z,55.90
2019-04-22T21:39:05.177Z,56.30
2019-04-22T21:41:34.451Z,55.70
2019-04-22T21:44:04.101Z,55.70
2019-04-22T21:46:42.470Z,55.10
2019-04-22T21:49:10.844Z,55.00
2019-04-22T21:51:48.049Z,54.70
2019-04-22T21:54:15.418Z,54.50
2019-04-22T21:56:56.638Z,54.10
2019-04-22T21:59:15.559Z,54.20
2019-04-22T22:01:52.898Z,53.90
2019-04-22T22:04:21.979Z,54.00
2019-04-22T22:06:41.388Z,53.90
2019-04-22T22:09:22.612Z,54.40
2019-04-22T22:11:49.236Z,54.00
2019-04-22T22:14:24.520Z,54.00
2019-04-22T22:16:47.223Z,54.30
2019-04-22T22:19:23.964Z,53.90
2019-04-22T22:22:30.172Z,53.80
2019-04-22T22:24:34.371Z,54.00
2019-04-22T22:27:01.747Z,54.30
2019-04-22T22:29:43.299Z,54.00
2019-04-22T22:32:07.913Z,54.10
2019-04-22T22:34:34.872Z,53.80
2019-04-22T22:37:00.286Z,54.10
2019-04-22T22:39:27.515Z,53.90
2019-04-22T22:41:45.953Z,53.80
2019-04-22T22:44:24.176Z,53.90
2019-04-22T22:47:03.574Z,54.10
2019-04-22T22:49:41.016Z,54.00
2019-04-22T22:52:36.499Z,54.20
2019-04-22T22:54:44.480Z,54.30
2019-04-22T22:57:21.423Z,54.70
2019-04-22T22:59:43.665Z,54.50
2019-04-22T23:02:11.580Z,54.50
2019-04-22T23:04:49.196Z,54.70
2019-04-22T23:07:24.328Z,54.80
2019-04-22T23:09:49.038Z,55.00
2019-04-22T23:12:31.261Z,55.50
2019-04-22T23:14:49.755Z,55.50
2019-04-22T23:17:07.088Z,56.40
2019-04-22T23:19:32.642Z,55.90
2019-04-22T23:22:12.554Z,56.00
2019-04-22T23:24:54.442Z,56.10
2019-04-22T23:27:27.314Z,56.40
2019-04-22T23:30:02.454Z,56.70
2019-04-22T23:32:35.222Z,56.80
2019-04-22T23:35:29.232Z,57.90
2019-04-22T23:37:58.682Z,57.40
2019-04-22T23:40:34.369Z,57.70
2019-04-22T23:43:09.076Z,58.00
2019-04-22T23:45:41.592Z,58.20
2019-04-22T23:48:09.270Z,58.30
2019-04-22T23:50:47.410Z,58.80
2019-04-22T23:53:45.153Z,59.10
2019-04-22T23:56:03.238Z,59.20
2019-04-22T23:58:47.659Z,59.60
